Time;durP1;ratioP1;P1;durP2;ratioP2;P2;SDS_P1;SDS_P2;PMS_P1;PMS_P2;Temp;Humidity;BMP_temperature;BMP_pressure;BME280_temperature;BME280_humidity;BME280_pressure;Samples;Min_cycle;Max_cycle;Signal;HPM_P1;HPM_P2
2022/05/24 00:00:59;;;;;;;7.80;5.70;;;;;;;13.92;56.19;99926.55;105298;1282;25262;-74
2022/05/24 00:03:26;;;;;;;6.60;5.60;;;;;;;13.86;56.29;99921.92;105251;1281;24558;-75
2022/05/24 00:05:54;;;;;;;6.60;5.00;;;;;;;13.83;56.40;99918.30;105240;1281;24318;-76
2022/05/24 00:08:21;;;;;;;8.50;5.40;;;;;;;13.77;56.53;99920.43;105337;1281;22885;-74
2022/05/24 00:10:48;;;;;;;7.00;5.00;;;;;;;13.70;56.55;99926.84;105428;1281;25353;-75
2022/05/24 00:13:15;;;;;;;7.80;4.60;;;;;;;13.62;56.76;99920.16;105284;1281;22546;-74
2022/05/24 00:15:43;;;;;;;6.80;5.30;;;;;;;13.54;56.95;99917.54;105496;1281;22606;-75
2022/05/24 00:18:17;;;;;;;7.80;5.80;;;;;;;13.47;57.13;99920.90;105450;1276;24284;-74
2022/05/24 00:20:50;;;;;;;7.70;5.70;;;;;;;13.45;57.24;99922.73;105878;1276;25351;-73
2022/05/24 00:23:20;;;;;;;7.60;5.70;;;;;;;13.44;57.45;99919.59;105830;1277;26669;-74
2022/05/24 00:25:52;;;;;;;6.70;5.40;;;;;;;13.44;57.41;99913.73;105835;1276;24047;-72
2022/05/24 00:28:22;;;;;;;7.10;5.70;;;;;;;13.38;57.50;99913.56;106041;1276;25529;-74
2022/05/24 00:30:50;;;;;;;8.50;6.10;;;;;;;13.33;57.67;99912.09;105963;1277;24286;-75
2022/05/24 00:33:18;;;;;;;8.90;6.40;;;;;;;13.33;57.72;99915.11;105776;1276;25646;-71
2022/05/24 00:35:45;;;;;;;8.80;5.80;;;;;;;13.29;57.97;99911.86;105913;1278;25251;-71
2022/05/24 00:38:19;;;;;;;6.60;5.80;;;;;;;13.28;58.13;99910.47;105835;1276;26527;-73
2022/05/24 00:40:46;;;;;;;12.40;6.30;;;;;;;13.29;58.40;99915.94;106035;1276;22591;-70
2022/05/24 00:43:39;;;;;;;8.50;6.50;;;;;;;13.25;58.57;99907.20;106010;1275;25360;-73
2022/05/24 00:46:13;;;;;;;9.80;6.80;;;;;;;13.25;58.74;99912.34;105855;1277;22573;-69
2022/05/24 00:51:59;;;;;;;9.80;6.40;;;;;;;13.24;59.11;99912.70;105662;1277;22554;-69
2022/05/24 00:54:26;;;;;;;9.90;6.60;;;;;;;13.23;59.14;99906.19;105786;1275;24455;-70
2022/05/24 00:57:22;;;;;;;9.50;8.00;;;;;;;13.20;59.26;99901.67;105626;1278;24242;-73
2022/05/24 01:00:07;;;;;;;12.20;7.20;;;;;;;13.18;59.49;99897.13;105965;1276;22759;-73
2022/05/24 01:02:36;;;;;;;7.90;6.30;;;;;;;13.16;59.53;99900.20;106070;1276;22531;-75
2022/05/24 01:05:05;;;;;;;10.00;6.80;;;;;;;13.13;59.55;99900.80;105915;1277;22843;-74
2022/05/24 01:07:33;;;;;;;9.10;7.20;;;;;;;13.11;59.46;99903.31;105921;1277;22554;-75
2022/05/24 01:10:18;;;;;;;9.40;6.70;;;;;;;13.09;59.49;99902.67;105795;1277;22541;-74
2022/05/24 01:12:55;;;;;;;10.50;7.00;;;;;;;13.07;59.64;99900.27;105918;1278;26509;-74
2022/05/24 01:15:23;;;;;;;8.30;6.50;;;;;;;13.04;59.61;99902.48;105958;1276;22534;-71
2022/05/24 01:17:52;;;;;;;12.00;7.00;;;;;;;13.00;59.60;99904.51;105419;1281;23983;-71
2022/05/24 01:20:20;;;;;;;8.80;6.90;;;;;;;12.92;59.51;99904.55;105420;1281;22521;-74
2022/05/24 01:23:14;;;;;;;8.60;6.50;;;;;;;12.87;59.71;99903.44;105330;1281;25279;-73
2022/05/24 01:28:59;;;;;;;10.60;6.80;;;;;;;12.70;59.86;99898.23;105312;1281;22546;-72
2022/05/24 01:36:09;;;;;;;7.20;6.10;;;;;;;12.65;60.00;99902.07;105516;1281;23194;-72
2022/05/24 01:37:52;;;;;;;11.20;6.60;;;;;;;12.57;60.28;99902.08;105744;1278;23947;-71
2022/05/24 01:40:19;;;;;;;8.00;6.40;;;;;;;12.57;60.38;99899.95;105838;1276;22591;-72
2022/05/24 01:42:46;;;;;;;7.40;6.00;;;;;;;12.55;60.42;99899.14;106154;1276;23071;-70
2022/05/24 01:45:23;;;;;;;7.70;6.90;;;;;;;12.52;60.41;99902.20;105997;1277;25362;-75
2022/05/24 01:52:59;;;;;;;;;;;;;;;12.36;60.61;99895.88;105312;1284;25197;-71
2022/05/24 01:55:34;;;;;;;11.00;5.90;;;;;;;12.31;60.93;99893.52;105438;1284;24360;-72
2022/05/24 01:58:06;;;;;;;7.40;5.80;;;;;;;12.34;60.99;99894.88;105290;1284;25328;-71
2022/05/24 02:00:33;;;;;;;6.90;6.00;;;;;;;12.37;61.01;99894.44;105028;1285;22718;-75
2022/05/24 02:03:00;;;;;;;7.60;6.10;;;;;;;12.36;60.97;99888.28;105191;1284;25568;-73
2022/05/24 02:05:34;;;;;;;8.30;6.50;;;;;;;12.33;60.97;99886.94;105115;1285;22589;-70
2022/05/24 02:08:03;;;;;;;9.60;6.10;;;;;;;12.31;61.10;99882.77;105207;1284;22881;-72
2022/05/24 02:10:39;;;;;;;9.90;6.00;;;;;;;12.31;61.13;99887.01;105305;1284;24220;-71
2022/05/24 02:13:08;;;;;;;7.70;6.10;;;;;;;12.27;61.18;99884.63;105314;1284;23946;-68
2022/05/24 02:15:39;;;;;;;7.00;6.10;;;;;;;12.28;61.33;99887.94;105250;1284;22541;-72
2022/05/24 02:18:11;;;;;;;7.80;6.00;;;;;;;12.27;61.40;99888.16;105134;1285;22546;-69
2022/05/24 02:20:41;;;;;;;9.20;6.00;;;;;;;12.28;61.49;99887.08;105122;1284;22631;-71
2022/05/24 02:23:11;;;;;;;9.60;5.80;;;;;;;12.28;61.43;99887.09;105267;1281;22655;-71
2022/05/24 02:25:43;;;;;;;8.00;6.00;;;;;;;12.24;61.43;99884.33;105736;1278;23340;-72
2022/05/24 02:28:11;;;;;;;8.90;6.10;;;;;;;12.25;61.45;99889.27;105886;1276;25250;-70
2022/05/24 02:30:50;;;;;;;8.60;5.30;;;;;;;12.20;61.43;99883.55;106055;1276;25378;-73
2022/05/24 02:33:18;;;;;;;12.30;6.60;;;;;;;12.17;61.55;99877.79;106077;1277;22848;-71
2022/05/24 02:35:45;;;;;;;7.90;6.00;;;;;;;12.18;61.58;99881.67;105721;1281;22680;-73
2022/05/24 02:38:12;;;;;;;8.70;5.80;;;;;;;12.17;61.78;99877.27;105630;1281;22608;-73
2022/05/24 02:43:25;;;;;;;7.00;5.90;;;;;;;12.19;61.95;99874.05;105608;1281;22559;-73
2022/05/24 02:45:54;;;;;;;11.00;6.60;;;;;;;12.21;62.08;99871.89;105379;1281;23105;-72
2022/05/24 02:48:21;;;;;;;9.40;6.50;;;;;;;12.18;61.90;99870.89;105622;1281;26631;-74
2022/05/24 02:50:48;;;;;;;8.60;5.80;;;;;;;12.16;62.01;99869.17;105703;1281;23931;-72
2022/05/24 02:53:15;;;;;;;10.50;6.80;;;;;;;12.15;62.02;99866.01;105539;1278;24243;-74
2022/05/24 02:55:42;;;;;;;7.20;6.10;;;;;;;12.14;62.08;99866.39;106064;1277;25455;-73
2022/05/24 02:58:09;;;;;;;9.60;7.20;;;;;;;12.17;62.23;99864.75;106029;1276;25246;-73
2022/05/24 03:00:36;;;;;;;7.60;6.10;;;;;;;12.17;62.21;99862.63;105628;1281;22865;-72
2022/05/24 03:03:03;;;;;;;8.80;5.90;;;;;;;12.13;62.14;99856.52;105241;1282;25257;-74
2022/05/24 03:05:31;;;;;;;7.30;5.90;;;;;;;12.11;62.30;99849.52;105194;1282;22844;-72
2022/05/24 03:10:45;;;;;;;9.40;5.90;;;;;;;12.00;62.36;99851.35;105363;1282;22536;-72
2022/05/24 03:15:58;;;;;;;6.90;5.80;;;;;;;11.90;62.69;99856.85;105235;1282;22977;-75
2022/05/24 03:18:25;;;;;;;8.30;6.10;;;;;;;11.93;62.90;99857.86;105260;1277;22558;-72
2022/05/24 03:20:52;;;;;;;10.00;6.40;;;;;;;12.00;62.98;99859.63;105634;1277;22548;-73
2022/05/24 03:23:19;;;;;;;7.50;6.30;;;;;;;12.06;62.97;99863.04;105724;1278;22584;-73
2022/05/24 03:25:46;;;;;;;9.00;6.20;;;;;;;12.10;63.03;99864.35;105748;1279;24263;-73
2022/05/24 03:28:17;;;;;;;8.60;5.80;;;;;;;12.16;63.00;99861.77;106027;1277;25416;-75
2022/05/24 03:30:44;;;;;;;7.00;5.80;;;;;;;12.18;62.88;99857.48;105737;1277;25375;-72
2022/05/24 03:33:12;;;;;;;8.90;6.40;;;;;;;12.18;62.84;99859.60;105910;1277;25441;-73
2022/05/24 03:35:39;;;;;;;7.90;6.00;;;;;;;12.17;62.79;99856.09;105944;1278;22607;-74
2022/05/24 03:38:07;;;;;;;7.90;6.60;;;;;;;12.20;62.83;99852.30;105824;1279;23927;-72
2022/05/24 03:40:35;;;;;;;7.00;5.80;;;;;;;12.24;62.87;99850.45;105938;1277;25972;-81
2022/05/24 03:43:03;;;;;;;7.70;6.20;;;;;;;12.27;62.87;99853.73;105978;1277;24258;-75
2022/05/24 03:45:30;;;;;;;9.20;6.80;;;;;;;12.30;62.91;99855.96;105853;1277;24231;-70
2022/05/24 03:47:57;;;;;;;10.00;6.50;;;;;;;12.33;62.79;99857.99;105156;1284;24255;-69
2022/05/24 03:50:24;;;;;;;7.90;5.90;;;;;;;12.34;62.64;99855.13;105151;1284;25673;-71
2022/05/24 03:52:51;;;;;;;7.10;5.70;;;;;;;12.30;62.64;99848.01;105184;1284;22544;-76
2022/05/24 03:55:18;;;;;;;8.70;5.90;;;;;;;12.30;62.77;99851.38;105399;1284;26048;-73
2022/05/24 03:58:00;;;;;;;7.90;6.10;;;;;;;12.28;62.81;99850.16;105209;1284;22765;-75
2022/05/24 04:00:31;;;;;;;8.10;6.20;;;;;;;12.29;62.95;99846.27;105140;1284;24263;-75
2022/05/24 04:02:59;;;;;;;6.50;5.90;;;;;;;12.30;62.93;99848.02;105189;1284;23966;-73
2022/05/24 04:05:27;;;;;;;6.90;5.30;;;;;;;12.30;62.99;99849.60;105319;1278;25526;-74
2022/05/24 04:07:54;;;;;;;11.40;5.20;;;;;;;12.34;63.13;99850.19;105753;1277;22543;-77
2022/05/24 04:10:21;;;;;;;7.90;5.40;;;;;;;12.42;63.26;99848.41;105700;1277;24432;-73
2022/05/24 04:12:48;;;;;;;15.90;6.60;;;;;;;12.47;63.15;99847.20;105641;1277;24117;-75
2022/05/24 04:15:15;;;;;;;6.90;5.70;;;;;;;12.50;63.05;99845.91;105874;1277;23968;-80
2022/05/24 04:17:42;;;;;;;7.00;6.10;;;;;;;12.52;63.12;99845.69;105609;1281;25421;-77
2022/05/24 04:20:09;;;;;;;7.10;6.10;;;;;;;12.55;63.07;99838.02;105586;1281;24434;-75
2022/05/24 04:22:37;;;;;;;6.80;5.90;;;;;;;12.55;63.08;99838.20;105466;1282;22685;-85
2022/05/24 04:25:05;;;;;;;7.00;5.60;;;;;;;12.56;63.14;99841.50;105424;1281;24297;-82
2022/05/24 04:27:32;;;;;;;8.40;5.80;;;;;;;12.58;63.17;99843.77;105380;1281;26501;-86
2022/05/24 04:29:59;;;;;;;8.30;5.50;;;;;;;12.60;63.13;99844.77;105408;1281;23972;-85
2022/05/24 04:32:26;;;;;;;8.90;6.10;;;;;;;12.62;63.20;99850.38;105681;1281;22602;-81
2022/05/24 04:34:53;;;;;;;7.40;5.50;;;;;;;12.67;63.13;99853.25;105812;1282;25275;-82
2022/05/24 04:37:20;;;;;;;7.80;5.40;;;;;;;12.70;63.20;99851.77;106318;1278;22503;-81
2022/05/24 04:39:47;;;;;;;8.10;5.40;;;;;;;12.71;63.18;99846.42;106312;1278;24307;-78
2022/05/24 04:42:21;;;;;;;6.70;5.30;;;;;;;12.74;63.17;99845.29;106488;1277;25552;-82
2022/05/24 04:44:52;;;;;;;8.40;5.20;;;;;;;12.83;63.13;99841.50;106923;1278;25260;-83
2022/05/24 04:47:21;;;;;;;6.70;5.90;;;;;;;12.92;63.08;99839.17;106366;1277;22796;-83
2022/05/24 04:49:54;;;;;;;6.70;5.50;;;;;;;13.01;63.05;99842.63;106245;1278;25581;-84
2022/05/24 04:52:27;;;;;;;6.70;5.80;;;;;;;13.07;62.91;99838.77;106705;1277;22539;-81
2022/05/24 04:54:55;;;;;;;9.10;5.90;;;;;;;13.07;62.77;99843.50;106256;1276;22538;-78
2022/05/24 04:57:23;;;;;;;9.10;6.10;;;;;;;13.11;62.72;99844.63;105926;1278;22548;-81
2022/05/24 04:59:50;;;;;;;5.70;5.10;;;;;;;13.16;62.61;99851.23;105890;1276;25450;-75
2022/05/24 05:02:19;;;;;;;7.00;5.60;;;;;;;13.19;62.64;99852.55;105887;1276;25213;-75
2022/05/24 05:04:46;;;;;;;7.90;5.50;;;;;;;13.23;62.49;99853.85;105572;1281;22489;-85
2022/05/24 05:07:16;;;;;;;8.20;6.00;;;;;;;13.28;62.27;99852.12;105578;1281;25645;-72
2022/05/24 05:09:43;;;;;;;7.30;5.30;;;;;;;13.31;62.15;99853.80;105588;1281;25251;-77
2022/05/24 05:12:11;;;;;;;9.00;5.40;;;;;;;13.32;62.08;99838.73;105357;1281;22655;-78
2022/05/24 05:14:40;;;;;;;7.40;5.60;;;;;;;13.39;62.09;99846.66;105541;1281;23409;-73
2022/05/24 05:17:12;;;;;;;6.50;4.90;;;;;;;13.46;62.14;99848.77;105603;1281;22724;-79
2022/05/24 05:19:40;;;;;;;5.30;4.80;;;;;;;13.51;61.66;99849.69;105721;1281;22704;-80
2022/05/24 05:22:07;;;;;;;9.70;5.90;;;;;;;13.58;61.66;99845.98;105617;1281;22696;-77
2022/05/24 05:24:35;;;;;;;6.50;4.70;;;;;;;13.65;61.47;99848.41;105760;1278;22553;-77
2022/05/24 05:27:02;;;;;;;6.30;5.10;;;;;;;13.71;61.24;99851.42;106010;1275;25251;-75
2022/05/24 05:32:26;;;;;;;11.90;5.70;;;;;;;13.84;60.57;99858.07;106081;1276;22752;-79
2022/05/24 05:34:53;;;;;;;;;;;;;;;13.88;60.42;99855.48;105900;1278;24010;-79
2022/05/24 05:37:20;;;;;;;7.40;4.50;;;;;;;13.92;60.27;99857.66;106184;1278;24120;-83
2022/05/24 05:39:52;;;;;;;5.80;4.30;;;;;;;13.99;59.87;99859.20;106390;1278;24576;-80
2022/05/24 05:42:19;;;;;;;7.80;4.60;;;;;;;14.05;59.65;99856.55;106020;1275;25247;-83
2022/05/24 05:44:50;;;;;;;6.10;4.90;;;;;;;14.10;59.76;99857.45;105953;1278;23204;-83
2022/05/24 05:47:18;;;;;;;7.40;5.60;;;;;;;14.18;59.53;99855.45;105789;1278;25267;-82
2022/05/24 05:49:46;;;;;;;9.10;5.30;;;;;;;14.23;59.39;99850.83;105890;1276;22580;-84
2022/05/24 05:52:15;;;;;;;6.70;4.90;;;;;;;14.30;59.32;99847.61;105907;1278;25263;-84
2022/05/24 05:54:43;;;;;;;7.60;4.70;;;;;;;14.37;59.05;99844.20;105886;1277;24218;-84
2022/05/24 05:57:11;;;;;;;6.70;4.50;;;;;;;14.42;58.58;99851.12;105934;1278;25211;-83
2022/05/24 05:59:39;;;;;;;7.60;5.50;;;;;;;14.46;58.37;99852.57;105838;1278;22591;-82
2022/05/24 06:02:08;;;;;;;6.20;4.60;;;;;;;14.50;58.23;99848.89;105891;1278;22528;-84
2022/05/24 06:04:35;;;;;;;4.90;4.30;;;;;;;14.55;58.42;99842.52;105847;1278;24278;-82
2022/05/24 06:07:02;;;;;;;6.60;5.00;;;;;;;14.59;58.09;99841.34;106071;1276;22525;-84
2022/05/24 06:09:29;;;;;;;5.00;4.50;;;;;;;14.65;57.79;99846.78;105824;1278;22579;-83
2022/05/24 06:12:00;;;;;;;7.10;4.50;;;;;;;14.69;57.66;99840.95;105897;1276;22549;-84
2022/05/24 06:14:27;;;;;;;9.10;4.70;;;;;;;14.72;57.61;99840.66;105785;1276;24236;-83
2022/05/24 06:17:17;;;;;;;8.80;5.60;;;;;;;14.75;57.52;99833.52;105971;1276;22536;-83
2022/05/24 06:19:45;;;;;;;5.00;4.50;;;;;;;14.81;57.57;99835.79;105946;1278;22533;-81
2022/05/24 06:22:12;;;;;;;5.60;4.70;;;;;;;14.85;57.33;99835.47;106014;1278;25247;-83
2022/05/24 06:24:39;;;;;;;5.70;4.50;;;;;;;14.88;57.14;99841.23;105732;1278;25246;-79
2022/05/24 06:27:07;;;;;;;6.50;4.60;;;;;;;14.89;57.18;99840.66;105974;1276;22564;-83
2022/05/24 06:29:36;;;;;;;5.80;4.50;;;;;;;14.94;56.84;99844.39;105930;1278;22563;-84
2022/05/24 06:32:04;;;;;;;6.40;4.40;;;;;;;14.99;56.82;99845.61;106116;1275;24328;-82
2022/05/24 06:34:31;;;;;;;7.00;4.20;;;;;;;15.06;56.63;99847.14;105928;1277;25369;-82
2022/05/24 06:36:59;;;;;;;5.20;4.40;;;;;;;15.12;56.69;99841.07;106101;1276;22534;-83
2022/05/24 06:39:27;;;;;;;6.20;3.90;;;;;;;15.18;56.26;99842.27;106041;1276;22583;-83
2022/05/24 06:42:00;;;;;;;8.60;3.90;;;;;;;15.24;55.88;99843.48;105879;1278;23983;-83
2022/05/24 06:44:33;;;;;;;7.40;4.60;;;;;;;15.29;55.98;99846.31;105900;1278;22564;-82
2022/05/24 06:47:00;;;;;;;4.90;4.10;;;;;;;15.37;55.96;99847.08;105957;1278;22534;-82
2022/05/24 06:49:27;;;;;;;8.70;4.30;;;;;;;15.45;55.54;99852.82;105849;1278;23963;-84
2022/05/24 06:51:54;;;;;;;6.00;3.90;;;;;;;15.53;54.87;99849.66;105871;1278;22761;-82
2022/05/24 06:54:21;;;;;;;4.90;3.70;;;;;;;15.57;54.26;99844.36;105781;1278;22547;-83
2022/05/24 06:56:49;;;;;;;5.30;3.60;;;;;;;15.64;54.11;99842.52;106440;1276;22659;-81
2022/05/24 07:04:47;;;;;;;5.40;3.40;;;;;;;15.82;53.25;99835.77;105871;1281;24281;-81
2022/05/24 07:07:16;;;;;;;3.40;3.10;;;;;;;15.92;53.18;99835.75;105654;1281;22551;-82
2022/05/24 07:09:43;;;;;;;4.50;3.30;;;;;;;16.01;52.50;99834.87;105839;1281;22756;-83
2022/05/24 07:12:10;;;;;;;4.20;3.20;;;;;;;16.09;52.22;99832.77;106083;1281;25372;-81
2022/05/24 07:14:37;;;;;;;5.40;3.00;;;;;;;16.15;51.69;99828.45;107931;1281;22765;-81
2022/05/24 07:17:05;;;;;;;5.30;3.40;;;;;;;16.21;51.79;99823.05;108617;1281;22408;-82
2022/05/24 07:19:32;;;;;;;5.90;3.10;;;;;;;16.32;51.68;99819.42;106262;1281;25501;-80
2022/05/24 07:22:00;;;;;;;5.90;3.20;;;;;;;16.40;51.11;99810.33;106030;1281;22595;-81
2022/05/24 07:24:28;;;;;;;4.20;3.80;;;;;;;16.47;51.07;99814.33;106374;1276;24385;-82
2022/05/24 07:26:54;;;;;;;4.50;3.40;;;;;;;16.55;51.11;99819.16;106301;1278;23368;-81
2022/05/24 07:29:22;;;;;;;6.70;3.50;;;;;;;16.64;50.75;99811.84;106451;1276;23092;-83
2022/05/24 07:31:50;;;;;;;4.90;3.70;;;;;;;16.73;50.73;99812.00;106310;1278;22537;-82
2022/05/24 07:34:18;;;;;;;3.40;3.10;;;;;;;16.81;50.38;99807.89;106364;1278;23964;-83
2022/05/24 07:36:46;;;;;;;3.70;3.00;;;;;;;16.91;50.52;99806.92;106134;1276;22537;-84
2022/05/24 07:39:13;;;;;;;4.50;3.00;;;;;;;17.00;50.42;99809.51;106231;1279;25250;-84
2022/05/24 07:47:31;;;;;;;6.10;3.30;;;;;;;17.44;49.03;99810.23;105799;1277;22710;-83
2022/05/24 07:49:58;;;;;;;3.60;3.30;;;;;;;17.52;48.60;99808.80;105913;1276;23930;-83
2022/05/24 07:52:25;;;;;;;4.80;3.30;;;;;;;17.60;48.14;99806.48;105949;1278;25385;-82
2022/05/24 07:54:53;;;;;;;3.50;2.90;;;;;;;17.67;48.25;99806.69;106144;1276;23007;-81
2022/05/24 07:57:20;;;;;;;4.40;3.10;;;;;;;17.77;48.16;99807.06;105768;1278;22573;-82
2022/05/24 07:59:51;;;;;;;8.70;3.30;;;;;;;17.86;47.68;99801.30;105592;1279;22699;-81
2022/05/24 08:02:20;;;;;;;3.30;3.00;;;;;;;17.96;46.88;99808.30;105554;1279;23313;-81
2022/05/24 08:04:47;;;;;;;6.00;3.00;;;;;;;18.05;45.90;99813.72;106069;1281;22542;-81
2022/05/24 08:07:15;;;;;;;7.00;3.10;;;;;;;18.18;45.44;99812.61;105268;1285;25368;-80
2022/05/24 08:09:45;;;;;;;3.20;2.80;;;;;;;18.27;44.52;99813.04;105433;1286;26515;-81
2022/05/24 08:12:12;;;;;;;7.00;3.00;;;;;;;18.36;43.95;99811.20;105315;1285;22748;-82
2022/05/24 08:14:39;;;;;;;3.40;2.80;;;;;;;18.37;43.83;99807.91;105214;1285;22656;-82
2022/05/24 08:17:06;;;;;;;4.40;2.60;;;;;;;18.44;44.07;99811.85;105012;1285;22559;-84
2022/05/24 08:19:38;;;;;;;6.40;2.80;;;;;;;18.53;43.79;99812.80;105348;1284;22772;-83
2022/05/24 08:22:06;;;;;;;4.00;2.30;;;;;;;18.67;44.00;99806.77;105328;1284;23968;-83
2022/05/24 08:24:34;;;;;;;6.30;2.10;;;;;;;18.86;44.24;99810.40;105332;1284;24384;-82
2022/05/24 08:27:01;;;;;;;4.60;2.90;;;;;;;19.10;44.18;99812.02;105889;1276;25492;-82
2022/05/24 08:29:28;;;;;;;5.40;2.10;;;;;;;19.29;43.07;99814.92;106043;1278;25319;-81
2022/05/24 08:31:55;;;;;;;3.50;1.80;;;;;;;19.47;42.83;99811.26;106283;1274;24229;-82
2022/05/24 08:34:23;;;;;;;2.80;2.30;;;;;;;19.64;42.19;99825.48;106012;1276;22544;-82
2022/05/24 08:36:50;;;;;;;3.80;2.40;;;;;;;19.73;42.06;99821.11;105838;1277;25387;-82
2022/05/24 08:39:17;;;;;;;6.80;2.20;;;;;;;19.75;41.81;99822.21;105933;1280;22544;-82
2022/05/24 08:42:08;;;;;;;6.20;2.80;;;;;;;19.79;41.60;99817.17;105739;1278;24239;-83
2022/05/24 08:50:19;;;;;;;2.70;2.20;;;;;;;19.85;40.76;99812.90;106199;1278;25382;-84
2022/05/24 08:53:04;;;;;;;5.00;2.10;;;;;;;19.80;39.96;99812.45;106018;1278;22483;-83
2022/05/24 08:55:40;;;;;;;2.80;2.30;;;;;;;19.75;40.42;99816.70;106085;1279;25617;-84
2022/05/24 08:58:40;;;;;;;4.20;2.00;;;;;;;19.81;40.69;99813.30;106136;1277;23032;-80
2022/05/24 09:01:32;;;;;;;2.50;2.00;;;;;;;19.93;40.67;99811.19;105856;1277;22541;-83
2022/05/24 09:04:06;;;;;;;5.30;2.60;;;;;;;20.02;40.65;99814.27;105904;1279;24270;-85
2022/05/24 09:06:49;;;;;;;2.40;2.20;;;;;;;20.13;40.77;99810.83;106016;1276;24021;-84
2022/05/24 09:09:35;;;;;;;5.40;2.90;;;;;;;20.21;40.71;99808.51;106007;1277;25923;-83
2022/05/24 09:12:52;;;;;;;3.90;2.80;;;;;;;20.31;41.11;99808.50;106079;1277;22564;-83
2022/05/24 09:15:33;;;;;;;3.00;2.20;;;;;;;20.49;40.70;99803.48;106012;1277;22700;-83
2022/05/24 09:18:45;;;;;;;6.80;2.30;;;;;;;20.60;40.69;99798.41;106178;1276;24231;-89
2022/05/24 09:21:22;;;;;;;4.10;2.60;;;;;;;20.72;39.93;99792.98;105498;1284;24303;-81
2022/05/24 09:24:26;;;;;;;6.40;3.10;;;;;;;20.76;40.28;99802.08;106757;1277;26516;-83
2022/05/24 09:27:05;;;;;;;3.70;2.70;;;;;;;20.83;40.07;99788.41;107380;1276;23904;-82
2022/05/24 09:29:35;;;;;;;5.90;2.90;;;;;;;20.94;40.13;99785.64;105865;1281;25363;-84
2022/05/24 09:32:08;;;;;;;4.60;2.90;;;;;;;21.04;39.65;99785.73;105638;1281;25755;-84
2022/05/24 09:34:38;;;;;;;8.00;2.70;;;;;;;21.02;39.20;99786.55;105580;1282;25219;-82
2022/05/24 09:37:25;;;;;;;4.10;2.50;;;;;;;21.09;39.73;99779.69;105370;1281;22599;-83
2022/05/24 09:40:00;;;;;;;6.70;2.90;;;;;;;21.22;39.23;99769.73;105405;1281;25260;-84
2022/05/24 09:42:31;;;;;;;7.40;2.90;;;;;;;21.32;39.06;99771.61;105367;1284;23995;-83
2022/05/24 09:45:06;;;;;;;3.00;2.30;;;;;;;21.40;38.81;99764.50;105449;1281;22572;-84
2022/05/24 09:47:42;;;;;;;7.60;2.50;;;;;;;21.59;38.81;99768.49;105545;1278;24242;-84
2022/05/24 09:50:19;;;;;;;6.50;2.20;;;;;;;21.77;38.63;99770.02;105999;1277;22528;-84
2022/05/24 09:53:12;;;;;;;4.30;2.00;;;;;;;21.94;38.28;99766.05;106108;1276;22709;-83
2022/05/24 09:55:43;;;;;;;5.40;2.70;;;;;;;22.05;37.91;99768.02;105972;1278;24236;-84
2022/05/24 09:58:22;;;;;;;3.90;2.20;;;;;;;22.14;37.93;99768.84;106057;1277;22578;-82
2022/05/24 10:01:09;;;;;;;7.40;2.30;;;;;;;22.08;36.66;99767.63;105880;1277;24293;-83
2022/05/24 10:03:43;;;;;;;2.80;2.50;;;;;;;21.85;35.99;99769.28;105877;1278;23007;-83
2022/05/24 10:06:22;;;;;;;3.10;2.30;;;;;;;21.64;36.18;99766.20;105974;1278;22662;-84
2022/05/24 10:08:56;;;;;;;4.40;2.00;;;;;;;21.51;36.32;99775.80;105912;1277;23069;-84
2022/05/24 10:11:47;;;;;;;6.20;2.10;;;;;;;21.35;36.64;99774.11;106020;1276;22872;-83
2022/05/24 10:15:00;;;;;;;5.50;1.90;;;;;;;21.36;37.54;99769.36;105890;1278;22564;-83
2022/05/24 10:17:53;;;;;;;7.00;2.50;;;;;;;21.45;37.07;99763.81;106230;1276;22738;-84
2022/05/24 10:20:47;;;;;;;6.50;2.00;;;;;;;21.44;36.77;99764.97;105867;1277;22572;-81
2022/05/24 10:23:40;;;;;;;4.30;2.30;;;;;;;21.39;36.68;99762.91;105914;1278;22564;-84
2022/05/24 10:26:17;;;;;;;3.20;1.80;;;;;;;21.31;36.60;99764.85;105829;1278;22573;-85
2022/05/24 10:29:06;;;;;;;7.50;2.10;;;;;;;21.22;36.86;99754.71;106059;1277;23199;-83
2022/05/24 10:31:55;;;;;;;8.90;2.50;;;;;;;21.20;37.24;99753.02;105997;1277;22572;-84
2022/05/24 10:38:17;;;;;;;5.50;1.90;;;;;;;21.27;36.98;99758.66;106132;1278;24237;-84
2022/05/24 10:41:00;;;;;;;5.00;2.30;;;;;;;21.08;36.51;99754.17;105824;1277;22594;-83
2022/05/24 10:43:53;;;;;;;5.60;2.10;;;;;;;21.05;37.37;99748.27;105975;1278;24356;-82
2022/05/24 10:46:56;;;;;;;3.40;2.00;;;;;;;21.17;37.59;99749.13;105904;1278;22521;-84
2022/05/24 10:49:33;;;;;;;3.00;2.20;;;;;;;21.21;37.45;99749.02;105605;1277;306036;-84
2022/05/24 10:52:33;;;;;;;2.40;2.10;;;;;;;21.27;37.35;99750.25;106048;1277;22559;-84
2022/05/24 10:55:18;;;;;;;4.10;2.50;;;;;;;21.26;36.75;99751.02;106032;1278;25627;-85
2022/05/24 10:58:02;;;;;;;8.90;2.30;;;;;;;21.23;36.84;99750.16;105921;1279;25495;-84
2022/05/24 11:00:37;;;;;;;7.30;2.20;;;;;;;21.31;37.19;99748.61;106135;1276;22499;-84
2022/05/24 11:03:07;;;;;;;;;;;;;;;21.40;36.73;99746.03;106014;1276;22530;-84
2022/05/24 11:06:04;;;;;;;4.90;1.90;;;;;;;21.44;36.44;99747.06;105811;1278;22565;-83
2022/05/24 11:08:39;;;;;;;4.60;2.10;;;;;;;21.57;36.26;99747.96;105435;1281;25229;-83
2022/05/24 11:11:43;;;;;;;6.30;1.70;;;;;;;21.73;36.38;99749.44;105349;1281;22544;-84
2022/05/24 11:14:30;;;;;;;7.30;2.50;;;;;;;21.76;35.77;99739.75;105605;1281;22567;-84
2022/05/24 11:16:57;;;;;;;4.10;1.60;;;;;;;21.71;35.65;99748.68;105721;1281;22674;-82
2022/05/24 11:19:39;;;;;;;2.10;1.40;;;;;;;21.58;35.42;99749.52;105761;1281;24064;-84
2022/05/24 11:22:12;;;;;;;4.50;1.70;;;;;;;21.32;35.24;99746.17;105791;1281;22540;-85
2022/05/24 11:25:19;;;;;;;3.90;1.90;;;;;;;21.16;35.84;99751.48;105930;1281;24463;-84
2022/05/24 11:27:51;;;;;;;2.80;1.60;;;;;;;20.99;35.85;99743.77;106165;1278;22540;-83
2022/05/24 11:30:33;;;;;;;3.80;1.70;;;;;;;20.83;36.26;99752.64;106184;1278;23071;-85
2022/05/24 11:33:02;;;;;;;2.80;2.00;;;;;;;20.72;36.48;99751.88;106366;1277;22554;-84
2022/05/24 11:35:35;;;;;;;3.90;2.10;;;;;;;20.61;36.41;99754.65;106449;1277;23156;-82
2022/05/24 11:38:16;;;;;;;5.10;2.10;;;;;;;20.56;36.79;99757.14;106627;1278;22502;-82
2022/05/24 11:41:07;;;;;;;3.50;1.90;;;;;;;20.53;36.77;99754.64;106268;1277;22532;-81
2022/05/24 11:43:43;;;;;;;1.80;1.60;;;;;;;20.48;36.68;99753.15;106127;1278;22564;-81
2022/05/24 11:46:38;;;;;;;10.00;2.40;;;;;;;20.49;36.83;99752.88;106138;1276;25370;-82
2022/05/24 11:49:18;;;;;;;5.10;2.00;;;;;;;20.58;36.95;99756.30;106006;1277;25833;-80
2022/05/24 11:52:09;;;;;;;3.10;2.10;;;;;;;20.69;37.11;99761.32;105850;1280;25383;-84
2022/05/24 11:54:54;;;;;;;3.90;1.90;;;;;;;20.82;36.84;99761.44;105779;1282;25864;-82
2022/05/24 11:57:26;;;;;;;2.20;1.70;;;;;;;20.94;36.64;99762.55;105807;1281;24876;-81
2022/05/24 11:59:53;;;;;;;3.20;1.80;;;;;;;20.99;36.37;99762.23;105388;1284;22547;-82
2022/05/24 12:02:27;;;;;;;2.20;1.60;;;;;;;21.03;36.38;99760.38;105220;1285;22835;-82
2022/05/24 12:07:59;;;;;;;2.50;1.60;;;;;;;21.14;36.09;99756.41;105399;1282;25457;-83
2022/05/24 12:10:52;;;;;;;3.40;1.70;;;;;;;21.17;36.28;99754.10;105517;1284;25386;-82
2022/05/24 12:13:25;;;;;;;9.20;1.80;;;;;;;21.26;36.59;99754.06;105672;1281;22809;-84
2022/05/24 12:15:56;;;;;;;4.80;1.70;;;;;;;21.30;36.28;99759.75;105563;1281;25270;-84
2022/05/24 12:18:37;;;;;;;3.50;1.60;;;;;;;21.27;36.26;99759.89;105770;1281;22572;-82
2022/05/24 12:21:04;;;;;;;2.40;1.60;;;;;;;21.24;36.18;99759.05;106042;1277;24690;-85
2022/05/24 12:23:30;;;;;;;2.90;2.10;;;;;;;21.26;36.38;99754.77;106078;1278;22569;-82
2022/05/24 12:26:12;;;;;;;4.00;1.50;;;;;;;21.33;36.76;99759.90;106049;1277;22534;-81
2022/05/24 12:28:40;;;;;;;5.20;1.80;;;;;;;21.39;36.46;99761.84;106008;1277;24533;-80
2022/05/24 12:31:07;;;;;;;1.90;1.60;;;;;;;21.40;36.46;99757.09;105960;1278;22543;-82
2022/05/24 12:33:40;;;;;;;3.10;1.60;;;;;;;21.47;36.57;99758.30;106256;1277;23553;-80
2022/05/24 12:36:07;;;;;;;2.50;1.30;;;;;;;21.57;36.68;99759.79;106043;1277;25253;-82
2022/05/24 12:38:37;;;;;;;5.80;1.70;;;;;;;21.55;36.05;99760.81;105335;1281;22580;-83
2022/05/24 12:41:12;;;;;;;3.60;1.50;;;;;;;21.55;36.29;99753.30;105391;1284;24314;-81